createdAt,value
2017-02-23T07:34:53.148Z,4.99
2017-02-23T07:35:33.907Z,5.17
2017-02-23T07:36:15.499Z,5.26
2017-02-23T07:37:53.431Z,5.35
2017-02-23T07:38:43.317Z,5.35
2017-02-23T07:41:14.605Z,5.3
2017-02-23T07:42:20.339Z,5.35
2017-02-23T07:43:08.504Z,5.28
2017-02-23T07:43:58.960Z,5.41
2017-02-23T07:44:49.828Z,5.3
2017-02-23T07:45:39.888Z,5.3
2017-02-23T07:47:44.817Z,5.35
2017-02-23T07:48:33.777Z,5.29
2017-02-23T07:49:22.183Z,5.46
2017-02-23T07:50:11.222Z,5.36
2017-02-23T07:51:00.069Z,5.39
2017-02-23T07:51:48.710Z,5.43
2017-02-23T07:52:40.440Z,5.43
2017-02-23T07:53:28.959Z,5.38
2017-02-23T07:54:17.557Z,5.36
2017-02-23T07:55:06.191Z,5.38
2017-02-23T07:55:59.157Z,5.38
2017-02-23T07:56:51.768Z,5.36
2017-02-23T08:02:16.817Z,5.56
2017-02-23T08:03:06.110Z,5.57
2017-02-23T08:03:58.442Z,5.54
2017-02-23T08:04:55.883Z,5.56
2017-02-23T08:05:44.816Z,5.54
2017-02-23T08:07:48.865Z,5.48
2017-02-23T08:08:38.311Z,5.5
2017-02-23T08:09:28.465Z,5.53
2017-02-23T08:10:21.464Z,5.54
2017-02-23T08:11:13.404Z,5.57
2017-02-23T08:12:02.384Z,5.65
2017-02-23T08:12:53.201Z,5.65
2017-02-23T08:15:38.939Z,5.66
2017-02-23T08:16:51.771Z,5.59
2017-02-23T08:17:44.860Z,5.76
2017-02-23T08:20:00.961Z,5.82
2017-02-23T08:20:51.701Z,5.79
2017-02-23T08:21:41.284Z,5.72
2017-02-23T08:22:38.389Z,5.83
2017-02-23T08:23:32.614Z,5.86
2017-02-23T08:24:23.165Z,5.89
2017-02-23T08:25:14.804Z,5.83
2017-02-23T08:26:06.827Z,5.93
2017-02-23T08:28:32.488Z,5.93
2017-02-23T08:29:31.968Z,6.02
2017-02-23T08:30:29.322Z,5.97
2017-02-23T08:31:36.303Z,6.08
2017-02-23T08:32:31.745Z,6.05
2017-02-23T08:33:23.680Z,6.07
2017-02-23T08:34:13.794Z,6.12
2017-02-23T08:36:13.539Z,6.09
2017-02-23T08:37:04.489Z,6.08
2017-02-23T08:37:57.766Z,6.26
2017-02-23T08:38:46.374Z,6.08
2017-02-23T08:39:35.894Z,6.17
2017-02-23T08:40:32.191Z,6.19
2017-02-23T08:41:21.765Z,6.24
2017-02-23T08:42:30.606Z,6.24
2017-02-23T08:46:05.360Z,6.2
2017-02-23T08:46:57.520Z,6.24
2017-02-23T08:47:52.760Z,6.24
2017-02-23T08:48:45.100Z,6.22
2017-02-23T08:51:14.965Z,6.19
2017-02-23T08:52:03.924Z,6.2
2017-02-23T08:52:54.001Z,6.22
2017-02-23T08:53:46.069Z,6.22
2017-02-23T08:54:35.999Z,6.24
2017-02-23T08:55:32.111Z,6.26
2017-02-23T08:58:10.317Z,6.2
2017-02-23T09:00:31.695Z,6.2
2017-02-23T09:02:40.418Z,6.26
2017-02-23T09:04:42.892Z,6.24
2017-02-23T09:05:31.207Z,6.24
2017-02-23T09:06:20.640Z,6.19
2017-02-23T09:08:37.228Z,6.05
2017-02-23T09:09:26.144Z,6.09
2017-02-23T09:10:15.360Z,6.01
2017-02-23T09:11:07.735Z,6.01
2017-02-23T09:11:59.844Z,6.07
2017-02-23T09:12:48.655Z,6.04
2017-02-23T09:15:28.099Z,5.97
2017-02-23T09:16:20.558Z,5.99
2017-02-23T09:17:23.571Z,5.91
2017-02-23T09:19:45.074Z,5.89
2017-02-23T09:21:56.688Z,5.71
2017-02-23T09:22:50.676Z,5.72
2017-02-23T09:23:44.569Z,5.76
2017-02-23T09:24:44.569Z,5.71
2017-02-23T09:25:38.436Z,5.84
2017-02-23T09:28:13.856Z,5.72
2017-02-23T09:29:03.677Z,5.62
2017-02-23T09:31:14.417Z,5.62
2017-02-23T09:36:15.638Z,5.62
2017-02-23T09:37:04.763Z,5.56
2017-02-23T09:37:53.191Z,5.5
2017-02-23T09:40:29.102Z,5.5
2017-02-23T09:42:21.293Z,5.36
2017-02-23T09:43:17.790Z,5.47
2017-02-23T09:47:19.942Z,5.35
2017-02-23T09:48:12.101Z,5.3
2017-02-23T09:49:07.186Z,5.29
2017-02-23T09:49:58.177Z,5.29
2017-02-23T09:50:50.294Z,5.28
2017-02-23T09:51:39.747Z,5.32
2017-02-23T09:52:36.381Z,5.29
2017-02-23T09:53:30.787Z,5.2
2017-02-23T09:54:31.315Z,5.21
2017-02-23T09:55:32.817Z,5.2
2017-02-23T09:56:22.681Z,5.18
2017-02-23T09:58:15.982Z,5.15
2017-02-23T09:59:11.383Z,5.1
2017-02-23T10:00:46.737Z,5.1
2017-02-23T10:01:38.728Z,5.1
2017-02-23T10:02:29.329Z,5.05
2017-02-23T10:03:19.087Z,5.07
2017-02-23T10:04:11.825Z,4.9
2017-02-23T10:05:10.113Z,4.9
2017-02-23T10:06:06.354Z,4.92
2017-02-23T10:08:36.978Z,4.96
2017-02-23T10:09:36.581Z,4.99
2017-02-23T10:11:21.477Z,4.97
2017-02-23T10:13:33.616Z,4.82
2017-02-23T10:14:26.306Z,4.7
2017-02-23T10:15:15.797Z,4.63
2017-02-23T10:16:08.209Z,4.7
2017-02-23T10:16:56.218Z,4.59
2017-02-23T10:17:50.022Z,4.78
2017-02-23T10:23:31.271Z,4.56
2017-02-23T10:25:54.567Z,4.58
2017-02-23T10:29:45.217Z,4.49
2017-02-23T10:31:51.325Z,4.48
2017-02-23T10:36:28.215Z,4.31
2017-02-23T10:37:19.575Z,4.38
2017-02-23T11:01:27.815Z,4.17
2017-02-23T11:02:24.382Z,4.24
2017-02-23T11:03:14.702Z,4.08
2017-02-23T11:04:09.897Z,4.08
2017-02-23T11:05:01.958Z,4.14
2017-02-23T11:05:50.221Z,4.05
2017-02-23T11:06:38.604Z,4.06
2017-02-23T11:07:27.520Z,3.99
2017-02-23T11:08:15.353Z,4.02
2017-02-23T11:09:04.751Z,4.04
2017-02-23T11:09:55.181Z,4.04
2017-02-23T11:10:44.119Z,3.92
2017-02-23T11:11:38.993Z,3.95
2017-02-23T11:12:27.610Z,3.99
2017-02-23T11:13:16.330Z,3.91
2017-02-23T11:14:07.217Z,3.91
2017-02-23T11:14:56.400Z,3.88
2017-02-23T11:17:31.694Z,3.87
2017-02-23T11:18:20.613Z,3.88
2017-02-23T11:19:09.540Z,3.91
2017-02-23T11:19:58.482Z,3.8
2017-02-23T11:20:49.905Z,3.8
2017-02-23T11:21:45.784Z,3.77
2017-02-23T11:25:43.083Z,3.83
2017-02-23T11:26:32.515Z,3.78
2017-02-23T11:28:44.829Z,3.77
2017-02-23T11:52:18.323Z,4.01
2017-02-23T11:53:10.261Z,4.02
2017-02-23T11:54:01.494Z,4.06
2017-02-23T11:54:51.689Z,4.02
2017-02-23T11:55:41.394Z,4.01
2017-02-23T11:56:35.656Z,4.05
2017-02-23T12:05:28.055Z,4.05
2017-02-23T12:06:18.828Z,4.01
2017-02-23T12:07:07.314Z,4.02
2017-02-23T12:12:22.349Z,4.12
2017-02-23T12:17:47.959Z,4.19
2017-02-23T12:18:41.546Z,4.13
2017-02-23T12:19:36.642Z,4.17
2017-02-23T12:21:15.678Z,4.17
2017-02-23T12:22:06.349Z,4.16
2017-02-23T12:22:59.359Z,4.14
2017-02-23T12:23:51.966Z,4.14
2017-02-23T12:24:47.275Z,4.19
2017-02-23T12:25:44.435Z,4.14
2017-02-23T12:26:33.171Z,4.16
2017-02-23T12:27:19.436Z,4.19
2017-02-23T12:29:52.431Z,4.13
2017-02-23T12:30:47.552Z,4.1
2017-02-23T12:31:37.521Z,4.13
2017-02-23T12:32:31.847Z,4.13
2017-02-23T12:36:50.555Z,4.3
2017-02-23T12:37:43.594Z,4.16
2017-02-23T12:38:31.793Z,4.2
2017-02-23T12:39:21.452Z,4.3
2017-02-23T12:40:11.593Z,4.3
2017-02-23T12:42:14.443Z,4.19
2017-02-23T12:43:14.113Z,4.24
2017-02-23T12:46:36.933Z,4.31
2017-02-23T12:47:32.917Z,4.35
2017-02-23T12:49:43.805Z,4.28
2017-02-23T12:50:35.667Z,4.37
2017-02-23T12:51:24.353Z,4.4
2017-02-23T12:52:15.863Z,4.34
2017-02-23T12:53:10.426Z,4.37
2017-02-23T12:53:50.955Z,4.37
2017-02-23T12:54:31.420Z,4.28
2017-02-23T12:55:11.867Z,4.34
2017-02-23T12:55:52.473Z,4.38
2017-02-23T12:56:33.027Z,4.26
2017-02-23T12:57:13.561Z,4.26
2017-02-23T12:57:54.080Z,4.35
2017-02-23T12:58:34.597Z,4.23
2017-02-23T12:59:15.091Z,4.32
2017-02-23T12:59:55.573Z,4.37
2017-02-23T13:00:36.084Z,4.3
2017-02-23T13:01:16.704Z,4.26
2017-02-23T13:01:57.191Z,4.23
2017-02-23T13:02:37.701Z,4.38
2017-02-23T13:03:18.218Z,4.26
2017-02-23T13:03:58.744Z,4.26
2017-02-23T13:04:39.188Z,4.26
2017-02-23T13:05:20.185Z,4.26
2017-02-23T13:06:00.713Z,4.28
2017-02-23T13:06:41.312Z,4.23
2017-02-23T13:07:21.760Z,4.26
2017-02-23T13:08:02.262Z,4.34
2017-02-23T13:08:42.731Z,4.37
2017-02-23T13:09:23.186Z,4.34
2017-02-23T13:10:03.692Z,4.38
2017-02-23T13:10:44.149Z,4.41
2017-02-23T13:11:24.670Z,4.49
2017-02-23T13:12:05.138Z,4.49
2017-02-23T13:12:45.575Z,4.48
2017-02-23T13:13:29.161Z,4.41
2017-02-23T13:14:08.853Z,4.48
2017-02-23T13:14:49.328Z,4.44
2017-02-23T13:15:29.836Z,4.45
2017-02-23T13:16:10.319Z,4.45
2017-02-23T13:16:50.831Z,4.45
2017-02-23T13:17:31.300Z,4.53
2017-02-23T13:18:11.793Z,4.48
2017-02-23T13:18:52.250Z,4.45
2017-02-23T13:19:32.754Z,4.49
2017-02-23T13:20:13.256Z,4.53
2017-02-23T13:20:53.781Z,4.49
2017-02-23T13:21:34.223Z,4.44
2017-02-23T13:22:14.719Z,4.5
2017-02-23T13:22:55.226Z,4.48
2017-02-23T13:23:35.812Z,4.49
2017-02-23T13:24:16.316Z,4.42
2017-02-23T13:24:56.852Z,4.56
2017-02-23T13:25:37.348Z,4.55
2017-02-23T13:26:17.853Z,4.59
2017-02-23T13:26:58.342Z,4.6
2017-02-23T13:27:38.919Z,4.58
2017-02-23T13:28:19.451Z,4.58
2017-02-23T13:28:59.955Z,4.58
2017-02-23T13:29:40.456Z,4.59
2017-02-23T13:30:20.950Z,4.62
2017-02-23T13:31:01.482Z,4.68
2017-02-23T13:31:41.950Z,4.59
2017-02-23T13:32:22.448Z,4.66
2017-02-23T13:33:02.934Z,4.66
2017-02-23T13:33:43.468Z,4.63
2017-02-23T13:34:23.939Z,4.67
2017-02-23T13:35:04.512Z,4.73
2017-02-23T13:35:45.019Z,4.73
2017-02-23T13:36:25.522Z,4.66
2017-02-23T13:37:06.047Z,4.7
2017-02-23T13:37:46.508Z,4.63
2017-02-23T13:38:27.026Z,4.74
2017-02-23T13:39:07.516Z,4.78
2017-02-23T13:39:48.054Z,4.75
2017-02-23T13:40:28.904Z,4.82
2017-02-23T13:41:09.920Z,4.77
2017-02-23T13:41:50.373Z,4.78
2017-02-23T13:42:30.901Z,4.8
2017-02-23T13:43:11.363Z,4.78
2017-02-23T13:43:51.817Z,4.73
2017-02-23T13:45:40.116Z,4.84
2017-02-23T13:46:20.799Z,4.8
2017-02-23T13:47:01.279Z,4.8
2017-02-23T13:47:41.769Z,4.9
2017-02-23T13:48:22.547Z,4.78
2017-02-23T13:49:02.973Z,4.84
2017-02-23T13:49:43.953Z,4.8
2017-02-23T13:50:23.962Z,4.86
2017-02-23T13:52:40.569Z,4.9
2017-02-23T13:53:28.556Z,4.86
2017-02-23T13:54:15.587Z,4.9
2017-02-23T13:54:56.671Z,4.84
2017-02-23T13:55:40.922Z,4.86
2017-02-23T13:56:24.028Z,4.84
2017-02-23T13:57:04.556Z,4.9
2017-02-23T13:57:45.956Z,4.9
2017-02-23T13:58:28.324Z,4.94
2017-02-23T13:59:12.502Z,4.92
2017-02-23T13:59:55.239Z,4.94
2017-02-23T14:00:47.020Z,5
2017-02-23T14:01:33.432Z,4.94
2017-02-23T14:02:21.518Z,4.96
2017-02-23T14:03:04.111Z,4.93
2017-02-23T14:03:44.440Z,5
2017-02-23T14:04:28.560Z,5.04
2017-02-23T14:05:09.820Z,4.93
2017-02-23T14:05:52.929Z,5.08
2017-02-23T14:06:36.021Z,5.1
2017-02-23T14:07:18.021Z,5.04
2017-02-23T14:07:59.162Z,5.1
2017-02-23T14:08:41.217Z,5.1
2017-02-23T14:09:24.921Z,5.12
2017-02-23T14:10:06.027Z,5.17
2017-02-23T14:10:48.381Z,5.12
2017-02-23T14:11:31.927Z,5.29
2017-02-23T14:12:16.216Z,5.29
2017-02-23T14:12:58.648Z,5.28
2017-02-23T14:13:39.926Z,5.28
2017-02-23T14:14:22.914Z,5.28
2017-02-23T14:15:03.994Z,5.29
2017-02-23T14:15:46.031Z,5.32
2017-02-23T14:16:28.933Z,5.33
2017-02-23T14:17:11.419Z,5.38
2017-02-23T14:17:51.910Z,5.47
2017-02-23T14:18:32.446Z,5.39
2017-02-23T14:19:15.652Z,5.41
2017-02-23T14:20:00.749Z,5.48
2017-02-23T14:20:57.697Z,5.41
2017-02-23T14:21:44.984Z,5.51
2017-02-23T14:22:32.921Z,5.47
2017-02-23T14:23:16.753Z,5.54
2017-02-23T14:23:58.683Z,5.56
2017-02-23T14:24:39.888Z,5.54
2017-02-23T14:25:21.073Z,5.56
2017-02-23T14:26:02.909Z,5.54
2017-02-23T14:26:44.656Z,5.56
2017-02-23T14:27:26.740Z,5.64
2017-02-23T14:28:08.458Z,5.53
2017-02-23T14:28:52.520Z,5.69
2017-02-23T14:29:37.732Z,5.62
2017-02-23T14:30:21.425Z,5.54
2017-02-23T14:31:03.036Z,5.61
2017-02-23T14:31:44.301Z,5.69
2017-02-23T14:32:28.477Z,5.75
2017-02-23T14:33:10.833Z,5.72
2017-02-23T14:33:53.107Z,5.73
2017-02-23T14:34:34.558Z,5.66
2017-02-23T14:35:23.539Z,5.86
2017-02-23T14:36:04.475Z,5.84
2017-02-23T14:36:46.637Z,5.89
2017-02-23T14:37:34.648Z,5.9
2017-02-23T14:38:15.616Z,5.9
2017-02-23T14:38:56.492Z,6.02
2017-02-23T14:39:39.398Z,6.08
2017-02-23T14:40:22.200Z,6.2
2017-02-23T14:41:04.137Z,6.27
2017-02-23T14:41:48.464Z,6.26
2017-02-23T14:42:31.551Z,6.39
2017-02-23T14:43:16.015Z,6.54
2017-02-23T14:44:01.721Z,6.69
2017-02-23T14:46:01.215Z,7
2017-02-23T14:46:47.644Z,7.03
2017-02-23T14:47:30.534Z,7.07
2017-02-23T14:48:12.979Z,7.1
2017-02-23T14:48:55.539Z,7.21
2017-02-23T14:49:40.271Z,7.25
2017-02-23T14:50:21.697Z,7.29
2017-02-23T14:51:08.338Z,7.38
2017-02-23T14:51:51.189Z,7.39
2017-02-23T14:52:34.726Z,7.15
2017-02-23T14:54:56.329Z,6.88
2017-02-23T15:00:32.259Z,6.81
2017-02-23T15:03:03.359Z,6.7
2017-02-23T15:07:34.475Z,6.67
2017-02-23T15:12:41.133Z,6.69
2017-02-23T15:14:18.402Z,6.62
2017-02-23T15:20:26.449Z,6.57
2017-02-23T15:22:08.355Z,6.57
2017-02-23T15:29:17.878Z,6.51
2017-02-23T15:30:06.196Z,6.46
2017-02-23T15:30:54.669Z,6.48
2017-02-23T15:32:47.143Z,6.44
2017-02-23T15:33:35.643Z,6.44
2017-02-23T15:34:19.875Z,6.36
2017-02-23T15:35:00.414Z,6.36
2017-02-23T15:35:40.894Z,6.39
2017-02-23T15:36:21.390Z,6.36
2017-02-23T15:37:01.884Z,6.33
2017-02-23T15:37:42.398Z,6.31
2017-02-23T15:38:22.927Z,6.3
2017-02-23T15:39:03.407Z,6.3
2017-02-23T15:39:43.944Z,6.36
2017-02-23T15:40:24.516Z,6.36
2017-02-23T15:41:07.583Z,6.24
2017-02-23T15:41:48.084Z,6.3
2017-02-23T15:42:28.560Z,6.35
2017-02-23T15:43:11.116Z,6.36
2017-02-23T15:43:51.628Z,6.31
2017-02-23T15:44:32.077Z,6.3
2017-02-23T15:45:12.795Z,6.33
2017-02-23T15:45:53.313Z,6.31
2017-02-23T15:46:33.816Z,6.26
2017-02-23T15:47:14.294Z,6.27
2017-02-23T15:47:54.819Z,6.26
2017-02-23T15:48:35.343Z,6.36
2017-02-23T15:49:15.874Z,6.35
2017-02-23T15:49:58.043Z,6.41
2017-02-23T15:50:38.500Z,6.39
2017-02-23T15:51:18.968Z,6.48
2017-02-23T15:51:59.412Z,6.52
2017-02-23T15:52:42.691Z,6.49
2017-02-23T15:53:30.589Z,6.59
2017-02-23T15:55:49.165Z,6.72
2017-02-23T15:57:29.496Z,6.82
2017-02-23T15:58:12.042Z,6.67
2017-02-23T15:58:58.324Z,6.77
2017-02-23T15:59:40.253Z,6.79
2017-02-23T16:00:21.606Z,6.77
2017-02-23T16:01:02.741Z,6.77
2017-02-23T16:01:44.830Z,6.75
2017-02-23T16:02:25.922Z,6.72
2017-02-23T16:03:06.938Z,6.72
2017-02-23T16:03:52.811Z,6.62
2017-02-23T16:04:34.027Z,6.62
2017-02-23T16:05:15.147Z,6.67
2017-02-23T16:05:55.624Z,6.67
2017-02-23T16:06:38.738Z,6.56
2017-02-23T16:07:19.812Z,6.57
2017-02-23T16:08:00.278Z,6.57
2017-02-23T16:08:42.344Z,6.59
2017-02-23T16:09:22.825Z,6.54
2017-02-23T16:10:05.721Z,6.51
2017-02-23T16:10:48.779Z,6.49
2017-02-23T16:11:30.003Z,6.46
2017-02-23T16:12:12.760Z,6.46
2017-02-23T16:12:54.714Z,6.48
2017-02-23T16:13:35.734Z,6.45
2017-02-23T16:14:18.031Z,6.42
2017-02-23T16:14:59.005Z,6.28
2017-02-23T16:15:44.225Z,6.33
2017-02-23T16:16:26.545Z,6.33
2017-02-23T16:17:08.777Z,6.36
2017-02-23T16:17:50.278Z,6.35
2017-02-23T16:18:30.734Z,6.36
2017-02-23T16:19:11.731Z,6.31
2017-02-23T16:19:52.185Z,6.36
2017-02-23T16:20:33.436Z,6.36
2017-02-23T16:21:14.721Z,6.31
2017-02-23T16:21:57.724Z,6.35
2017-02-23T16:22:41.738Z,6.33
2017-02-23T16:23:24.933Z,6.35
2017-02-23T16:24:06.326Z,6.38
2017-02-23T16:24:50.231Z,6.3
2017-02-23T16:25:34.247Z,6.36
2017-02-23T16:26:14.743Z,6.38
2017-02-23T16:26:55.918Z,6.28
2017-02-23T16:27:37.824Z,6.31
2017-02-23T16:28:19.984Z,6.26
2017-02-23T16:29:01.130Z,6.33
2017-02-23T16:29:42.715Z,6.3
2017-02-23T16:30:24.738Z,6.33
2017-02-23T16:31:05.229Z,6.24
2017-02-23T16:31:45.707Z,6.41
2017-02-23T16:32:27.821Z,6.36
2017-02-23T16:33:08.278Z,6.36
2017-02-23T16:33:49.537Z,6.3
2017-02-23T16:34:31.612Z,6.22
2017-02-23T16:35:12.121Z,6.33
2017-02-23T16:35:52.601Z,6.26
2017-02-23T16:36:34.750Z,6.24
2017-02-23T16:37:17.743Z,6.33
2017-02-23T16:38:00.735Z,6.3
2017-02-23T16:38:41.894Z,6.3
2017-02-23T16:39:23.221Z,6.31
2017-02-23T16:40:05.248Z,6.39
2017-02-23T16:40:47.600Z,6.41
2017-02-23T16:41:29.067Z,6.36
2017-02-23T16:42:10.126Z,6.39
2017-02-23T16:42:52.914Z,6.44
2017-02-23T16:43:34.180Z,6.45
2017-02-23T16:44:14.775Z,6.52
2017-02-23T16:44:56.159Z,6.54
2017-02-23T16:45:36.674Z,6.52
2017-02-23T16:46:17.164Z,6.57
2017-02-23T16:46:58.406Z,6.54
2017-02-23T16:47:39.823Z,6.6
2017-02-23T16:48:20.326Z,6.54
2017-02-23T16:49:01.751Z,6.51
2017-02-23T16:49:42.980Z,6.52
2017-02-23T16:50:23.443Z,6.57
2017-02-23T16:51:03.922Z,6.59
2017-02-23T16:51:44.360Z,6.56
2017-02-23T16:52:25.501Z,6.54
2017-02-23T16:53:06.043Z,6.66
2017-02-23T16:53:46.494Z,6.6
2017-02-23T16:54:27.582Z,6.59
2017-02-23T16:55:08.062Z,6.59
2017-02-23T16:55:49.312Z,6.59
2017-02-23T16:56:29.826Z,6.56
2017-02-23T16:57:11.720Z,6.59
2017-02-23T16:57:54.920Z,6.49
2017-02-23T16:58:35.373Z,6.59
2017-02-23T16:59:15.967Z,6.52
2017-02-23T16:59:56.515Z,6.51
2017-02-23T17:00:37.016Z,6.62
2017-02-23T17:01:17.565Z,6.52
2017-02-23T17:01:57.990Z,6.57
2017-02-23T17:02:38.490Z,6.57
2017-02-23T17:03:18.976Z,6.52
2017-02-23T17:03:59.466Z,6.49
2017-02-23T17:04:39.950Z,6.52
2017-02-23T17:05:21.334Z,6.54
2017-02-23T17:06:03.478Z,6.59
2017-02-23T17:06:46.415Z,6.56
2017-02-23T17:07:27.820Z,6.54
2017-02-23T17:08:09.825Z,6.54
2017-02-23T17:08:50.341Z,6.52
2017-02-23T17:09:31.728Z,6.51
2017-02-23T17:10:14.948Z,6.54
2017-02-23T17:10:58.870Z,6.51
2017-02-23T17:11:42.833Z,6.52
2017-02-23T17:12:24.731Z,6.49
2017-02-23T17:13:05.322Z,6.56
2017-02-23T17:13:45.924Z,6.48
2017-02-23T17:14:26.828Z,6.59
2017-02-23T17:15:07.303Z,6.54
2017-02-23T17:15:47.772Z,6.51
2017-02-23T17:16:29.756Z,6.51
2017-02-23T17:17:10.200Z,6.45
2017-02-23T17:17:50.683Z,6.52
2017-02-23T17:18:31.915Z,6.51
2017-02-23T17:19:12.442Z,6.49
2017-02-23T17:19:53.781Z,6.44
2017-02-23T17:20:34.271Z,6.42
2017-02-23T17:21:14.766Z,6.44
2017-02-23T17:21:55.252Z,6.42
2017-02-23T17:22:42.320Z,6.28
2017-02-23T17:23:22.838Z,6.3
2017-02-23T17:24:03.331Z,6.33
2017-02-23T17:24:43.865Z,6.33
2017-02-23T17:25:24.343Z,6.42
2017-02-23T17:26:04.812Z,6.26
2017-02-23T17:26:45.334Z,6.26
2017-02-23T17:27:25.803Z,6.38
2017-02-23T17:28:06.309Z,6.31
2017-02-23T17:28:46.799Z,6.26
2017-02-23T17:29:28.912Z,6.28
2017-02-23T17:30:09.476Z,6.17
2017-02-23T17:30:49.953Z,6.19
2017-02-23T17:31:31.073Z,6.26
2017-02-23T17:32:11.536Z,6.07
2017-02-23T17:32:52.010Z,6.12
2017-02-23T17:33:32.533Z,6.08
2017-02-23T17:34:13.026Z,6.22
2017-02-23T17:34:53.507Z,6.09
2017-02-23T17:35:34.021Z,6.08
2017-02-23T17:36:14.556Z,6.08
2017-02-23T17:36:55.054Z,6.05
2017-02-23T17:37:35.543Z,6.02
2017-02-23T17:38:16.049Z,6.07
2017-02-23T17:38:56.541Z,6.05
2017-02-23T17:39:37.014Z,6.08
2017-02-23T17:40:17.456Z,6.08
2017-02-23T17:40:57.953Z,6.05
2017-02-23T17:41:38.442Z,6.07
2017-02-23T17:42:18.951Z,6.09
2017-02-23T17:42:59.459Z,6.02
2017-02-23T17:43:39.897Z,6.12
2017-02-23T17:44:23.023Z,6.11
2017-02-23T17:45:04.403Z,6.08
2017-02-23T17:45:44.881Z,6.07
2017-02-23T17:46:25.397Z,6.05
2017-02-23T17:47:05.875Z,6.11
2017-02-23T17:47:46.376Z,6.05
2017-02-23T17:48:27.413Z,6.08
2017-02-23T17:49:07.892Z,6.07
2017-02-23T17:49:48.412Z,6.11
2017-02-23T17:50:28.966Z,6.08
2017-02-23T17:51:09.468Z,6.08
2017-02-23T17:51:49.928Z,6.09
2017-02-23T17:52:30.467Z,6.04
2017-02-23T17:53:10.935Z,6.09
2017-02-23T17:53:51.450Z,6.07
2017-02-23T17:54:31.934Z,6.05
2017-02-23T17:55:12.403Z,6.09
2017-02-23T17:55:52.905Z,6.07
2017-02-23T17:56:33.432Z,6.08
2017-02-23T17:57:13.966Z,6.08
2017-02-23T17:57:54.467Z,6.09
2017-02-23T17:58:34.935Z,6.07
2017-02-23T17:59:15.432Z,6.05
2017-02-23T17:59:55.939Z,6.09
2017-02-23T18:00:36.455Z,6.08
2017-02-23T18:01:16.924Z,6.11
2017-02-23T18:01:57.407Z,6.08
2017-02-23T18:02:37.913Z,6.08
2017-02-23T18:03:18.392Z,6.09
2017-02-23T18:03:58.909Z,6.12
2017-02-23T18:04:39.423Z,6.02
2017-02-23T18:05:19.908Z,6.09
2017-02-23T18:06:00.422Z,6.05
2017-02-23T18:06:40.896Z,6.02
2017-02-23T18:08:39.049Z,6.05
2017-02-23T18:09:19.451Z,6.11
2017-02-23T18:09:59.926Z,6.05
2017-02-23T18:10:40.406Z,6.07
2017-02-23T18:11:20.881Z,6.05
2017-02-23T18:12:01.379Z,6.05
2017-02-23T18:12:41.845Z,6.05
2017-02-23T18:13:22.355Z,6.05
2017-02-23T18:14:02.853Z,6.05
2017-02-23T18:14:43.346Z,6.01
2017-02-23T18:15:23.794Z,6.07
2017-02-23T18:16:04.311Z,6.08
2017-02-23T18:16:44.795Z,6.08
2017-02-23T18:17:25.253Z,6.07
2017-02-23T18:18:05.752Z,6.05
2017-02-23T18:18:46.253Z,6.04
2017-02-23T18:19:26.743Z,6.01
2017-02-23T18:20:07.220Z,6.11
2017-02-23T18:20:47.692Z,6.04
2017-02-23T18:21:28.199Z,6.07
2017-02-23T18:22:08.681Z,6.12
2017-02-23T18:22:49.201Z,6.07
2017-02-23T18:23:29.678Z,6.02
2017-02-23T18:24:10.135Z,6.02
2017-02-23T18:24:50.645Z,6.09
2017-02-23T18:25:31.191Z,6.02
2017-02-23T18:26:11.679Z,6.07
2017-02-23T18:26:52.173Z,5.98
2017-02-23T18:27:32.653Z,5.99
2017-02-23T18:28:13.123Z,5.97
2017-02-23T18:28:53.624Z,5.93
2017-02-23T18:29:34.128Z,5.94
2017-02-23T18:30:14.608Z,5.98
2017-02-23T18:30:55.067Z,5.94
2017-02-23T18:31:35.549Z,5.9
2017-02-23T18:32:16.050Z,5.91
2017-02-23T18:32:56.500Z,5.89
2017-02-23T18:33:36.970Z,5.89
2017-02-23T18:34:17.442Z,5.87
2017-02-23T18:34:57.907Z,5.91
2017-02-23T18:35:38.389Z,5.82
2017-02-23T18:36:20.612Z,5.76
2017-02-23T18:37:01.089Z,5.86
2017-02-23T18:37:41.583Z,5.8
2017-02-23T18:38:22.087Z,5.82
2017-02-23T18:39:02.591Z,5.76
2017-02-23T18:39:43.118Z,5.83
2017-02-23T18:40:23.559Z,5.73
2017-02-23T18:41:04.051Z,5.69
2017-02-23T18:41:44.532Z,5.8
2017-02-23T18:42:25.044Z,5.72
2017-02-23T18:43:05.501Z,5.73
2017-02-23T18:43:45.988Z,5.68
2017-02-23T18:44:26.473Z,5.72
2017-02-23T18:45:06.961Z,5.64
2017-02-23T18:45:47.482Z,5.66
2017-02-23T18:46:27.954Z,5.71
2017-02-23T18:47:08.428Z,5.57
2017-02-23T18:47:49.877Z,5.62
2017-02-23T18:48:30.396Z,5.61
2017-02-23T18:49:10.872Z,5.59
2017-02-23T18:49:51.500Z,5.62
2017-02-23T18:50:31.978Z,5.57
2017-02-23T18:51:12.500Z,5.57
2017-02-23T18:51:52.979Z,5.64
2017-02-23T18:52:33.459Z,5.62
2017-02-23T18:53:13.977Z,5.69
2017-02-23T18:53:54.478Z,5.61
2017-02-23T18:54:34.991Z,5.56
2017-02-23T18:55:15.539Z,5.59
2017-02-23T18:55:55.996Z,5.61
2017-02-23T18:56:36.458Z,5.51
2017-02-23T18:57:16.958Z,5.64
2017-02-23T18:57:57.424Z,5.56
2017-02-23T18:58:37.916Z,5.59
2017-02-23T18:59:18.379Z,5.51
2017-02-23T18:59:58.857Z,5.56
2017-02-23T19:00:39.376Z,5.53
2017-02-23T19:01:19.874Z,5.48
2017-02-23T19:02:00.352Z,5.57
2017-02-23T19:02:40.861Z,5.51
2017-02-23T19:03:21.353Z,5.48
2017-02-23T19:04:01.847Z,5.57
2017-02-23T19:04:42.342Z,5.54
2017-02-23T19:05:22.792Z,5.51
2017-02-23T19:06:03.282Z,5.47
2017-02-23T19:06:43.756Z,5.54
2017-02-23T19:07:24.246Z,5.46
2017-02-23T19:08:07.737Z,5.48
2017-02-23T19:08:48.199Z,5.47
2017-02-23T19:09:28.705Z,5.39
2017-02-23T19:10:09.256Z,5.48
2017-02-23T19:10:49.752Z,5.41
2017-02-23T19:11:30.235Z,5.39
2017-02-23T19:12:13.596Z,5.39
2017-02-23T19:12:55.142Z,5.41
2017-02-23T19:13:37.135Z,5.41
2017-02-23T19:14:17.571Z,5.48
2017-02-23T19:14:58.087Z,5.48
2017-02-23T19:15:38.539Z,5.41
2017-02-23T19:16:19.400Z,5.39
2017-02-23T19:16:59.888Z,5.43
2017-02-23T19:17:40.377Z,5.44
2017-02-23T19:18:20.839Z,5.41
2017-02-23T19:19:01.295Z,5.39
2017-02-23T19:19:42.884Z,5.46
2017-02-23T19:20:23.357Z,5.39
2017-02-23T19:21:03.859Z,5.39
2017-02-23T19:21:44.402Z,5.41
2017-02-23T19:22:24.903Z,5.44
2017-02-23T19:23:07.002Z,5.41
2017-02-23T19:23:47.460Z,5.36
2017-02-23T19:24:28.967Z,5.39
2017-02-23T19:25:09.489Z,5.44
2017-02-23T19:25:49.971Z,5.47
2017-02-23T19:26:30.441Z,5.41
2017-02-23T19:27:10.901Z,5.39
2017-02-23T19:27:51.514Z,5.46
2017-02-23T19:28:32.035Z,5.38
2017-02-23T19:29:12.506Z,5.43
2017-02-23T19:29:53.005Z,5.41
2017-02-23T19:30:33.461Z,5.38
2017-02-23T19:31:14.032Z,5.39
2017-02-23T19:31:54.535Z,5.44
2017-02-23T19:32:35.016Z,5.41
2017-02-23T19:33:15.503Z,5.5
2017-02-23T19:33:55.958Z,5.36
2017-02-23T19:34:36.445Z,5.39
2017-02-23T19:35:16.941Z,5.41
2017-02-23T19:35:57.399Z,5.47
2017-02-23T19:36:37.922Z,5.44
2017-02-23T19:37:18.378Z,5.39
2017-02-23T19:37:58.841Z,5.41
2017-02-23T19:38:39.329Z,5.53
2017-02-23T19:39:19.839Z,5.53
2017-02-23T19:40:00.341Z,5.54
2017-02-23T19:40:40.832Z,5.47
2017-02-23T19:41:21.330Z,5.47
2017-02-23T19:42:01.824Z,5.47
2017-02-23T19:42:42.321Z,5.5
2017-02-23T19:43:22.807Z,5.47
2017-02-23T19:44:03.299Z,5.51
2017-02-23T19:44:43.791Z,5.46
2017-02-23T19:45:24.276Z,5.43
2017-02-23T19:46:04.775Z,5.43
2017-02-23T19:46:45.238Z,5.48
2017-02-23T19:47:25.735Z,5.48
2017-02-23T19:48:06.232Z,5.47
2017-02-23T19:48:46.737Z,5.48
2017-02-23T19:49:27.180Z,5.39
2017-02-23T19:50:07.702Z,5.43
2017-02-23T19:50:48.140Z,5.39
2017-02-23T19:51:28.632Z,5.46
2017-02-23T19:52:09.113Z,5.47
2017-02-23T19:52:49.610Z,5.44
2017-02-23T19:53:30.085Z,5.46
2017-02-23T19:54:10.584Z,5.38
2017-02-23T19:54:51.069Z,5.39
2017-02-23T19:55:31.529Z,5.43
2017-02-23T19:56:11.990Z,5.43
2017-02-23T19:56:52.471Z,5.38
2017-02-23T19:57:32.944Z,5.41
2017-02-23T19:58:15.346Z,5.43
2017-02-23T19:58:55.835Z,5.39
2017-02-23T19:59:36.371Z,5.36
2017-02-23T20:00:16.853Z,5.44
2017-02-23T20:00:57.297Z,5.36
2017-02-23T20:01:37.776Z,5.35
2017-02-23T20:02:18.254Z,5.35
2017-02-23T20:02:58.713Z,5.44
2017-02-23T20:03:39.218Z,5.36
2017-02-23T20:04:19.727Z,5.41
2017-02-23T20:05:00.180Z,5.43
2017-02-23T20:05:40.644Z,5.41
2017-02-23T20:06:22.022Z,5.28
2017-02-23T20:07:02.507Z,5.39
2017-02-23T20:07:43.040Z,5.3
2017-02-23T20:08:23.502Z,5.3
2017-02-23T20:09:04.055Z,5.43
2017-02-23T20:09:44.502Z,5.33
2017-02-23T20:10:24.972Z,5.33
2017-02-23T20:11:07.117Z,5.26
2017-02-23T20:11:47.644Z,5.29
2017-02-23T20:12:28.111Z,5.3
2017-02-23T20:13:09.447Z,5.25
2017-02-23T20:13:51.477Z,5.32
2017-02-23T20:14:31.985Z,5.33
2017-02-23T20:15:13.408Z,5.36
2017-02-23T20:15:53.871Z,5.28
2017-02-23T20:16:34.453Z,5.38
2017-02-23T20:17:17.476Z,5.3
2017-02-23T20:17:57.936Z,5.32
2017-02-23T20:18:38.420Z,5.32
2017-02-23T20:19:18.892Z,5.3
2017-02-23T20:19:59.361Z,5.28
2017-02-23T20:20:39.847Z,5.32
2017-02-23T20:21:20.296Z,5.33
2017-02-23T20:22:00.746Z,5.3
2017-02-23T20:22:43.899Z,5.32
2017-02-23T20:23:24.363Z,5.3
2017-02-23T20:24:04.866Z,5.33
2017-02-23T20:24:45.309Z,5.28
2017-02-23T20:25:25.789Z,5.3
2017-02-23T20:26:06.291Z,5.32